Time;durP1;ratioP1;P1;durP2;ratioP2;P2;SDS_P1;SDS_P2;PMS_P1;PMS_P2;Temp;Humidity;BMP_temperature;BMP_pressure;BME280_temperature;BME280_humidity;BME280_pressure;Samples;Min_cycle;Max_cycle;Signal;HPM_P1;HPM_P2
2022/05/20 00:00:35;;;;;;;;;;;15.80;99.90;;;;;;5009567;28;19930;-62
2022/05/20 00:03:02;;;;;;;;;;;15.90;99.90;;;;;;5011149;28;19935;-62
2022/05/20 00:05:29;;;;;;;;;;;15.90;99.90;;;;;;5006008;28;20035;-61
2022/05/20 00:07:56;;;;;;;;;;;16.00;99.90;;;;;;5010333;28;19925;-62
2022/05/20 00:10:23;;;;;;;;;;;16.00;99.90;;;;;;5013303;28;20012;-62
2022/05/20 00:12:50;;;;;;;;;;;16.00;99.90;;;;;;4999418;28;19929;-62
2022/05/20 00:15:21;;;;;;;;;;;16.00;99.90;;;;;;5009585;28;19932;-62
2022/05/20 00:17:50;;;;;;;;;;;15.90;99.90;;;;;;5008564;28;19932;-62
2022/05/20 00:20:18;;;;;;;;;;;15.90;99.90;;;;;;5013168;28;19929;-62
2022/05/20 00:22:45;;;;;;;;;;;15.90;99.90;;;;;;5012251;28;20007;-62
2022/05/20 00:27:59;;;;;;;;;;;15.80;99.90;;;;;;5008200;28;19938;-63
2022/05/20 00:30:26;;;;;;;;;;;15.80;99.90;;;;;;5001971;28;19932;-62
2022/05/20 00:32:55;;;;;;;;;;;15.80;99.90;;;;;;5007771;28;20276;-62
2022/05/20 00:35:22;;;;;;;;;;;15.80;99.90;;;;;;5012102;28;19933;-63
2022/05/20 00:37:53;;;;;;;;;;;15.80;99.90;;;;;;5004958;28;20388;-65
2022/05/20 00:40:22;;;;;;;;;;;15.80;99.90;;;;;;5003859;28;19929;-62
2022/05/20 00:42:49;;;;;;;;;;;15.80;99.90;;;;;;5006357;28;20016;-63
2022/05/20 00:45:16;;;;;;;;;;;15.80;99.90;;;;;;5009272;28;19930;-62
2022/05/20 00:47:43;;;;;;;;;;;15.90;99.90;;;;;;5006228;28;19960;-62
2022/05/20 00:50:12;;;;;;;;;;;15.90;99.90;;;;;;4999528;28;20308;-63
2022/05/20 00:52:41;;;;;;;;;;;15.90;99.90;;;;;;5010410;28;19932;-63
2022/05/20 00:55:12;;;;;;;;;;;15.90;99.90;;;;;;5003560;28;19925;-65
2022/05/20 00:57:44;;;;;;;;;;;16.00;99.90;;;;;;5010525;28;20578;-69
2022/05/20 01:00:13;;;;;;;;;;;16.10;99.90;;;;;;5009569;28;19972;-68
2022/05/20 01:02:40;;;;;;;;;;;16.10;99.90;;;;;;5005939;28;19932;-67
2022/05/20 01:05:15;;;;;;;;;;;16.20;99.90;;;;;;5004310;28;20335;-67
2022/05/20 01:07:43;;;;;;;;;;;16.20;99.90;;;;;;5010356;28;20046;-67
2022/05/20 01:10:09;;;;;;;;;;;16.20;99.90;;;;;;5007779;28;19925;-67
2022/05/20 01:12:36;;;;;;;;;;;16.20;99.90;;;;;;5008383;28;20396;-68
2022/05/20 01:15:04;;;;;;;;;;;16.20;99.90;;;;;;5007768;28;20373;-68
2022/05/20 01:17:30;;;;;;;;;;;16.20;99.90;;;;;;5011444;28;19926;-68
2022/05/20 01:19:57;;;;;;;;;;;16.20;99.90;;;;;;5010944;28;19983;-68
2022/05/20 01:22:45;;;;;;;;;;;16.20;99.90;;;;;;5011426;28;19925;-68
2022/05/20 01:25:12;;;;;;;;;;;16.20;99.90;;;;;;5004406;28;19926;-68
2022/05/20 01:27:42;;;;;;;;;;;16.20;99.90;;;;;;5002492;28;20372;-68
2022/05/20 01:30:14;;;;;;;;;;;16.10;99.90;;;;;;5006469;28;20024;-68
2022/05/20 01:32:43;;;;;;;;;;;16.10;99.90;;;;;;5010782;28;19926;-69
2022/05/20 01:35:11;;;;;;;;;;;16.10;99.90;;;;;;5004444;28;19926;-69
2022/05/20 01:37:38;;;;;;;;;;;16.20;99.90;;;;;;5004856;28;19932;-70
2022/05/20 01:40:06;;;;;;;;;;;16.10;99.90;;;;;;5007020;28;19926;-69
2022/05/20 01:42:38;;;;;;;;;;;16.10;99.90;;;;;;5010219;28;19932;-69
2022/05/20 01:45:05;;;;;;;;;;;16.10;99.90;;;;;;5009340;28;20423;-68
2022/05/20 01:47:37;;;;;;;;;;;16.10;99.90;;;;;;5008797;28;19926;-68
2022/05/20 01:50:07;;;;;;;;;;;16.10;99.90;;;;;;5008405;28;19925;-68
2022/05/20 01:52:46;;;;;;;;;;;16.20;99.90;;;;;;5012275;28;19929;-72
2022/05/20 01:55:18;;;;;;;;;;;16.20;99.90;;;;;;5007909;28;19930;-73
2022/05/20 01:57:51;;;;;;;;;;;16.10;99.90;;;;;;5009417;28;20483;-73
2022/05/20 02:00:23;;;;;;;;;;;16.10;99.90;;;;;;5011879;28;19929;-71
2022/05/20 02:03:16;;;;;;;;;;;16.10;99.90;;;;;;5011258;28;20023;-68
2022/05/20 02:05:50;;;;;;;;;;;16.00;99.90;;;;;;5002982;28;19968;-68
2022/05/20 02:08:40;;;;;;;;;;;16.00;99.90;;;;;;5009968;28;20004;-67
2022/05/20 02:11:07;;;;;;;;;;;15.90;99.90;;;;;;4996456;28;19969;-68
2022/05/20 02:13:36;;;;;;;;;;;15.90;99.90;;;;;;5003859;28;20012;-67
2022/05/20 02:16:06;;;;;;;;;;;15.90;99.90;;;;;;5007256;28;19925;-67
2022/05/20 02:18:35;;;;;;;;;;;15.90;99.90;;;;;;5004423;28;19929;-67
2022/05/20 02:21:08;;;;;;;;;;;15.80;99.90;;;;;;5009281;28;19932;-67
2022/05/20 02:23:37;;;;;;;;;;;15.90;99.90;;;;;;5009589;28;19926;-68
2022/05/20 02:26:09;;;;;;;;;;;15.90;99.90;;;;;;5007983;28;19926;-69
2022/05/20 02:28:38;;;;;;;;;;;15.80;99.90;;;;;;5008376;28;20547;-69
2022/05/20 02:31:07;;;;;;;;;;;15.80;99.90;;;;;;5009437;28;20020;-69
2022/05/20 02:33:34;;;;;;;;;;;15.80;99.90;;;;;;5005101;28;19976;-70
2022/05/20 02:36:02;;;;;;;;;;;15.80;99.90;;;;;;5012282;28;19932;-70
2022/05/20 02:38:31;;;;;;;;;;;15.80;99.90;;;;;;5004759;28;19971;-70
2022/05/20 02:40:58;;;;;;;;;;;15.80;99.90;;;;;;5001016;28;19926;-72
2022/05/20 02:43:25;;;;;;;;;;;15.90;99.90;;;;;;5007404;28;20641;-71
2022/05/20 02:45:52;;;;;;;;;;;15.90;99.90;;;;;;5006543;28;19926;-72
2022/05/20 02:48:19;;;;;;;;;;;15.90;99.90;;;;;;4998364;28;19926;-72
2022/05/20 02:50:47;;;;;;;;;;;15.90;99.90;;;;;;5013254;28;20004;-71
2022/05/20 02:53:13;;;;;;;;;;;15.90;99.90;;;;;;5007973;28;19939;-70
2022/05/20 02:55:40;;;;;;;;;;;15.90;99.90;;;;;;5008772;28;19932;-70
2022/05/20 02:58:07;;;;;;;;;;;15.80;99.90;;;;;;5009116;28;19980;-70
2022/05/20 03:06:23;;;;;;;;;;;15.80;99.90;;;;;;5007515;28;20024;-70
2022/05/20 03:08:51;;;;;;;;;;;15.70;99.90;;;;;;5008060;28;19930;-71
2022/05/20 03:11:20;;;;;;;;;;;15.70;99.90;;;;;;5006417;28;19925;-72
2022/05/20 03:13:48;;;;;;;;;;;15.70;99.90;;;;;;5006132;28;20316;-71
2022/05/20 03:16:15;;;;;;;;;;;15.70;99.90;;;;;;5008158;28;20324;-72
2022/05/20 03:18:42;;;;;;;;;;;15.70;99.90;;;;;;5008257;28;20406;-72
2022/05/20 03:21:08;;;;;;;;;;;15.70;99.90;;;;;;5005153;28;20388;-73
2022/05/20 03:23:35;;;;;;;;;;;15.60;99.90;;;;;;5003880;28;20616;-70
2022/05/20 03:26:03;;;;;;;;;;;15.60;99.90;;;;;;4987828;28;20012;-72
2022/05/20 03:28:30;;;;;;;;;;;15.60;99.90;;;;;;5007428;28;20544;-72
2022/05/20 03:31:07;;;;;;;;;;;15.60;99.90;;;;;;5007916;28;20008;-72
2022/05/20 03:33:34;;;;;;;;;;;15.70;99.90;;;;;;5009245;28;19929;-72
2022/05/20 03:36:01;;;;;;;;;;;15.70;99.90;;;;;;5011684;28;19971;-72
2022/05/20 03:38:27;;;;;;;;;;;15.70;99.90;;;;;;4997187;28;20016;-72
2022/05/20 03:40:54;;;;;;;;;;;15.70;99.90;;;;;;5010865;28;19929;-73
2022/05/20 03:43:21;;;;;;;;;;;15.60;99.90;;;;;;5004941;28;19933;-73
2022/05/20 03:45:47;;;;;;;;;;;15.60;99.90;;;;;;5008665;28;19972;-73
2022/05/20 03:48:14;;;;;;;;;;;15.60;99.90;;;;;;5002443;28;20431;-74
2022/05/20 03:50:47;;;;;;;;;;;15.60;99.90;;;;;;5006107;28;19980;-73
2022/05/20 03:53:14;;;;;;;;;;;15.60;99.90;;;;;;5007008;28;19944;-73
2022/05/20 03:55:41;;;;;;;;;;;15.60;99.90;;;;;;5014700;28;19948;-73
2022/05/20 03:58:07;;;;;;;;;;;15.60;99.90;;;;;;5006820;28;20293;-75
2022/05/20 04:03:19;;;;;;;;;;;15.60;99.90;;;;;;5012129;28;19929;-73
2022/05/20 04:05:46;;;;;;;;;;;15.60;99.90;;;;;;5012918;28;19930;-73
2022/05/20 04:08:13;;;;;;;;;;;15.60;99.90;;;;;;5013488;28;20004;-73
2022/05/20 04:10:40;;;;;;;;;;;15.60;99.90;;;;;;5013204;28;20001;-72
2022/05/20 04:13:06;;;;;;;;;;;15.60;99.90;;;;;;5003815;28;19925;-73
2022/05/20 04:15:33;;;;;;;;;;;15.60;99.90;;;;;;5012068;28;19925;-72
2022/05/20 04:18:00;;;;;;;;;;;15.60;99.90;;;;;;5012026;28;19988;-78
2022/05/20 04:20:26;;;;;;;;;;;15.60;99.90;;;;;;5008764;28;19931;-72
2022/05/20 04:22:53;;;;;;;;;;;15.60;99.90;;;;;;5018558;28;20470;-74
2022/05/20 04:25:20;;;;;;;;;;;15.50;99.90;;;;;;5016314;28;19925;-73
2022/05/20 04:27:47;;;;;;;;;;;15.60;99.90;;;;;;5024414;28;20428;-75
2022/05/20 04:30:13;;;;;;;;;;;15.50;99.90;;;;;;5003696;28;19925;-78
2022/05/20 04:32:40;;;;;;;;;;;15.50;99.90;;;;;;5017178;28;20407;-75
2022/05/20 04:35:07;;;;;;;;;;;15.60;99.90;;;;;;5015903;28;19926;-74
2022/05/20 04:37:37;;;;;;;;;;;15.60;99.90;;;;;;5015251;28;19929;-77
2022/05/20 04:40:04;;;;;;;;;;;15.60;99.90;;;;;;5018465;28;20395;-76
2022/05/20 04:48:01;;;;;;;;;;;15.70;99.90;;;;;;5014609;28;19964;-75
2022/05/20 04:50:28;;;;;;;;;;;15.80;99.90;;;;;;5013400;28;19925;-80
2022/05/20 04:52:55;;;;;;;;;;;15.80;99.90;;;;;;5002084;28;19926;-82
2022/05/20 04:55:21;;;;;;;;;;;15.80;99.90;;;;;;5046413;28;20008;-74
2022/05/20 04:57:52;;;;;;;;;;;15.80;99.90;;;;;;5012358;28;19957;-75
2022/05/20 05:00:20;;;;;;;;;;;15.70;99.90;;;;;;5016692;28;19921;-74
2022/05/20 05:02:47;;;;;;;;;;;15.70;99.90;;;;;;5007652;28;19970;-73
2022/05/20 05:05:16;;;;;;;;;;;15.80;99.90;;;;;;5008543;28;19936;-73
2022/05/20 05:07:44;;;;;;;;;;;15.80;99.90;;;;;;5010944;28;19953;-78
2022/05/20 05:10:12;;;;;;;;;;;15.70;99.90;;;;;;5008084;28;19932;-76
2022/05/20 05:12:38;;;;;;;;;;;15.70;99.90;;;;;;5021025;28;19925;-77
2022/05/20 05:15:05;;;;;;;;;;;15.80;99.90;;;;;;5006385;28;19936;-79
2022/05/20 05:20:32;;;;;;;;;;;15.80;99.90;;;;;;4961064;28;26104;-77
2022/05/20 05:23:00;;;;;;;;;;;15.80;99.90;;;;;;4919306;28;25079;-77
2022/05/20 05:25:28;;;;;;;;;;;15.90;99.90;;;;;;4888294;28;25060;-79
2022/05/20 05:28:05;;;;;;;;;;;15.90;99.90;;;;;;4948833;28;20295;-77
2022/05/20 05:30:33;;;;;;;;;;;16.00;99.90;;;;;;5038839;28;20011;-79
2022/05/20 05:33:00;;;;;;;;;;;16.00;99.90;;;;;;5014098;28;20012;-78
2022/05/20 05:35:27;;;;;;;;;;;16.00;99.90;;;;;;5009186;28;19973;-77
2022/05/20 05:37:54;;;;;;;;;;;16.00;99.90;;;;;;5009797;28;20568;-77
2022/05/20 05:40:23;;;;;;;;;;;16.10;99.90;;;;;;5011267;28;19936;-76
2022/05/20 05:42:55;;;;;;;;;;;16.30;99.90;;;;;;5013963;28;19922;-78
2022/05/20 05:45:50;;;;;;;;;;;16.70;99.90;;;;;;5008075;28;19921;-80
2022/05/20 05:48:17;;;;;;;;;;;17.00;99.90;;;;;;5051252;28;20278;-79
2022/05/20 05:50:44;;;;;;;;;;;17.00;99.90;;;;;;5013019;28;19921;-77
2022/05/20 05:53:17;;;;;;;;;;;17.30;99.90;;;;;;5014233;28;20012;-77
2022/05/20 05:55:46;;;;;;;;;;;17.50;99.90;;;;;;5004197;28;19921;-77
2022/05/20 05:58:13;;;;;;;;;;;17.60;99.90;;;;;;5012083;28;19943;-76
2022/05/20 06:00:41;;;;;;;;;;;17.90;99.90;;;;;;5010355;28;19961;-76
2022/05/20 06:03:08;;;;;;;;;;;18.40;99.90;;;;;;5014989;28;20420;-77
2022/05/20 06:05:35;;;;;;;;;;;18.90;99.90;;;;;;5017494;28;20318;-76
2022/05/20 06:08:02;;;;;;;;;;;19.50;99.90;;;;;;5015543;28;19921;-77
2022/05/20 06:10:29;;;;;;;;;;;19.90;99.90;;;;;;5005459;28;19931;-77
2022/05/20 06:12:55;;;;;;;;;;;20.30;99.90;;;;;;5005593;28;20008;-77
2022/05/20 06:15:22;;;;;;;;;;;20.50;99.90;;;;;;5010841;28;19928;-77
2022/05/20 06:17:50;;;;;;;;;;;20.70;99.90;;;;;;5011461;28;19948;-77
2022/05/20 06:20:17;;;;;;;;;;;20.90;99.90;;;;;;5008840;28;19921;-74
2022/05/20 06:22:44;;;;;;;;;;;21.40;99.90;;;;;;5009872;28;19925;-74
2022/05/20 06:25:11;;;;;;;;;;;21.10;99.90;;;;;;5004735;28;20295;-80
2022/05/20 06:27:39;;;;;;;;;;;20.60;99.90;;;;;;5012341;28;20023;-77
2022/05/20 06:30:10;;;;;;;;;;;20.20;99.90;;;;;;5011696;28;19921;-77
2022/05/20 06:32:37;;;;;;;;;;;20.10;99.90;;;;;;5002672;28;19921;-75
2022/05/20 06:40:41;;;;;;;;;;;21.30;99.90;;;;;;5012585;28;19922;-79
2022/05/20 06:43:07;;;;;;;;;;;21.50;99.90;;;;;;5010271;28;20372;-77
2022/05/20 06:45:34;;;;;;;;;;;21.90;99.90;;;;;;5012720;28;20364;-75
2022/05/20 06:48:21;;;;;;;;;;;22.10;99.90;;;;;;5002443;28;19929;-74
2022/05/20 06:50:47;;;;;;;;;;;22.20;99.90;;;;;;5002579;28;20376;-72
2022/05/20 06:53:14;;;;;;;;;;;21.80;99.90;;;;;;5011776;28;20420;-73
2022/05/20 06:55:41;;;;;;;;;;;21.80;99.90;;;;;;5013939;28;20384;-75
2022/05/20 06:58:08;;;;;;;;;;;22.10;99.90;;;;;;5009642;28;19964;-73
2022/05/20 07:00:35;;;;;;;;;;;23.00;99.90;;;;;;5002878;28;20229;-76
2022/05/20 07:03:01;;;;;;;;;;;22.90;99.90;;;;;;5003390;28;20287;-77
2022/05/20 07:05:28;;;;;;;;;;;22.50;99.90;;;;;;5004387;28;19952;-74
2022/05/20 07:07:56;;;;;;;;;;;22.30;99.90;;;;;;5002400;28;19925;-74
2022/05/20 07:10:23;;;;;;;;;;;22.80;99.90;;;;;;5001149;28;19932;-74
2022/05/20 07:12:50;;;;;;;;;;;22.50;99.90;;;;;;5008230;28;19931;-76
2022/05/20 07:15:17;;;;;;;;;;;22.40;99.90;;;;;;5009635;28;19925;-73
2022/05/20 07:17:45;;;;;;;;;;;22.30;99.90;;;;;;5000844;28;19928;-73
2022/05/20 07:20:12;;;;;;;;;;;22.60;99.90;;;;;;5016034;28;20005;-74
2022/05/20 07:22:39;;;;;;;;;;;23.10;99.90;;;;;;5004387;28;20549;-74
2022/05/20 07:25:06;;;;;;;;;;;23.50;99.90;;;;;;5007681;28;20619;-74
2022/05/20 07:27:35;;;;;;;;;;;23.50;99.90;;;;;;5016854;28;19953;-75
2022/05/20 07:30:02;;;;;;;;;;;23.10;99.90;;;;;;4994487;28;19925;-72
2022/05/20 07:32:30;;;;;;;;;;;22.90;99.90;;;;;;5002576;28;19929;-74
2022/05/20 07:34:59;;;;;;;;;;;22.90;99.90;;;;;;4997665;28;20030;-72
2022/05/20 07:37:25;;;;;;;;;;;23.60;99.90;;;;;;5005853;28;19936;-72
2022/05/20 07:39:52;;;;;;;;;;;24.20;99.90;;;;;;4997283;28;20540;-72
2022/05/20 07:42:19;;;;;;;;;;;24.60;99.90;;;;;;5009132;28;20113;-72
2022/05/20 07:44:45;;;;;;;;;;;25.60;99.90;;;;;;5002622;28;19922;-72
2022/05/20 07:47:12;;;;;;;;;;;26.90;99.90;;;;;;5002762;28;19921;-73
2022/05/20 07:49:42;;;;;;;;;;;27.40;99.90;;;;;;5005720;28;19921;-73
2022/05/20 07:52:10;;;;;;;;;;;28.30;99.90;;;;;;5001167;28;19951;-73
2022/05/20 07:54:38;;;;;;;;;;;29.10;99.90;;;;;;5000107;28;20388;-75
2022/05/20 07:57:07;;;;;;;;;;;29.50;99.90;;;;;;4999729;28;19996;-73
2022/05/20 07:59:40;;;;;;;;;;;29.70;99.90;;;;;;4997591;28;19921;-76
2022/05/20 08:02:07;;;;;;;;;;;29.90;99.90;;;;;;5001816;28;20276;-73
2022/05/20 08:04:58;;;;;;;;;;;30.10;99.90;;;;;;5002571;28;19925;-74
2022/05/20 08:07:26;;;;;;;;;;;30.50;99.90;;;;;;5004859;28;20428;-73
2022/05/20 08:09:53;;;;;;;;;;;30.80;99.90;;;;;;5003924;28;20285;-74
2022/05/20 08:12:20;;;;;;;;;;;30.60;99.90;;;;;;5001093;28;19928;-74
2022/05/20 08:14:48;;;;;;;;;;;30.00;99.90;;;;;;5000130;28;19921;-73
2022/05/20 08:17:15;;;;;;;;;;;29.90;99.90;;;;;;5007408;28;19971;-73
2022/05/20 08:19:41;;;;;;;;;;;30.20;99.90;;;;;;5004819;28;19921;-73
2022/05/20 08:22:08;;;;;;;;;;;30.90;99.90;;;;;;5000261;28;19967;-72
2022/05/20 08:24:35;;;;;;;;;;;31.20;99.90;;;;;;5007300;28;19929;-73
2022/05/20 08:27:01;;;;;;;;;;;31.60;99.90;;;;;;5007968;28;19928;-74
2022/05/20 08:29:31;;;;;;;;;;;31.90;99.90;;;;;;5005146;28;19975;-72
2022/05/20 08:32:00;;;;;;;;;;;32.00;99.90;;;;;;5005674;28;19921;-72
2022/05/20 08:34:27;;;;;;;;;;;31.70;99.90;;;;;;5048271;28;20406;-71
2022/05/20 08:36:53;;;;;;;;;;;31.10;99.90;;;;;;5032972;28;19925;-73
2022/05/20 08:39:20;;;;;;;;;;;30.70;99.90;;;;;;5028520;28;19925;-72
2022/05/20 08:41:51;;;;;;;;;;;30.60;99.90;;;;;;5009347;28;19936;-72
2022/05/20 08:44:19;;;;;;;;;;;30.90;99.90;;;;;;5008390;28;20016;-71
2022/05/20 08:46:47;;;;;;;;;;;31.30;99.90;;;;;;5012929;28;20020;-71
2022/05/20 08:49:18;;;;;;;;;;;31.90;99.90;;;;;;5013224;28;19921;-72
2022/05/20 08:51:48;;;;;;;;;;;32.30;99.90;;;;;;5012473;28;19928;-71
2022/05/20 08:54:14;;;;;;;;;;;32.30;99.90;;;;;;5012515;28;19922;-71
2022/05/20 08:56:41;;;;;;;;;;;32.70;99.90;;;;;;5012921;28;20008;-72
2022/05/20 08:59:16;;;;;;;;;;;32.90;99.90;;;;;;5016955;28;19921;-71
2022/05/20 09:01:44;;;;;;;;;;;32.20;99.90;;;;;;5011597;28;19928;-70
2022/05/20 09:04:15;;;;;;;;;;;31.60;99.90;;;;;;5011468;28;19990;-72
2022/05/20 09:06:58;;;;;;;;;;;30.90;99.90;;;;;;5012370;28;19922;-70
2022/05/20 09:09:38;;;;;;;;;;;30.70;99.90;;;;;;4993620;28;19926;-71
2022/05/20 09:12:05;;;;;;;;;;;29.80;99.90;;;;;;5013583;28;20034;-70
2022/05/20 09:17:21;;;;;;;;;;;29.90;99.90;;;;;;4998817;28;19926;-70
2022/05/20 09:20:17;;;;;;;;;;;30.10;99.90;;;;;;4993994;28;19932;-70
2022/05/20 09:22:53;;;;;;;;;;;30.30;99.90;;;;;;4971126;28;19922;-69
2022/05/20 09:25:26;;;;;;;;;;;31.30;99.90;;;;;;4988357;28;22577;-69
2022/05/20 09:27:56;;;;;;;;;;;31.80;99.90;;;;;;4990055;28;20369;-70
2022/05/20 09:30:23;;;;;;;;;;;32.70;99.90;;;;;;4989711;28;19928;-69
2022/05/20 09:33:14;;;;;;;;;;;33.00;99.90;;;;;;4991427;28;20388;-70
2022/05/20 09:35:46;;;;;;;;;;;33.20;99.90;;;;;;4983580;28;19928;-71
2022/05/20 09:38:33;;;;;;;;;;;32.60;99.90;;;;;;4989765;28;19949;-69
2022/05/20 09:41:25;;;;;;;;;;;32.30;99.90;;;;;;4979064;28;19941;-69
2022/05/20 09:43:56;;;;;;;;;;;31.70;99.90;;;;;;4970423;28;20085;-69
2022/05/20 09:46:51;;;;;;;;;;;30.70;99.90;;;;;;4970822;28;20525;-69
2022/05/20 09:49:30;;;;;;;;;;;30.50;99.90;;;;;;4969996;28;19925;-70
2022/05/20 09:52:00;;;;;;;;;;;30.70;99.90;;;;;;4990128;28;19925;-68
2022/05/20 09:54:35;;;;;;;;;;;31.20;99.90;;;;;;4980999;28;19961;-69
2022/05/20 09:57:05;;;;;;;;;;;31.50;99.90;;;;;;4988440;28;19928;-68
2022/05/20 09:59:50;;;;;;;;;;;31.30;99.90;;;;;;4987911;28;20293;-68
2022/05/20 10:02:41;;;;;;;;;;;31.50;99.90;;;;;;4999918;28;19929;-68
2022/05/20 10:05:11;;;;;;;;;;;31.20;99.90;;;;;;5006466;28;19925;-68
2022/05/20 10:07:54;;;;;;;;;;;31.90;99.90;;;;;;4995472;28;20023;-69
2022/05/20 10:10:40;;;;;;;;;;;32.10;99.90;;;;;;5005357;28;19921;-67
2022/05/20 10:13:08;;;;;;;;;;;31.30;99.90;;;;;;5011125;28;19932;-67
2022/05/20 10:15:41;;;;;;;;;;;30.50;99.90;;;;;;5011303;28;19921;-68
2022/05/20 10:18:13;;;;;;;;;;;30.30;99.90;;;;;;5010397;28;20295;-67
2022/05/20 10:21:00;;;;;;;;;;;30.50;99.90;;;;;;5012449;28;19921;-67
2022/05/20 10:23:42;;;;;;;;;;;30.60;99.90;;;;;;5010049;28;19951;-68
2022/05/20 10:26:32;;;;;;;;;;;31.00;99.90;;;;;;5000917;28;19921;-67
2022/05/20 10:34:57;;;;;;;;;;;30.50;99.90;;;;;;5010410;28;20040;-66
2022/05/20 10:37:33;;;;;;;;;;;29.90;99.90;;;;;;5006252;28;19922;-66
2022/05/20 10:40:19;;;;;;;;;;;29.60;99.90;;;;;;5002785;28;19928;-67
2022/05/20 10:42:47;;;;;;;;;;;29.50;99.90;;;;;;5011356;28;19931;-67
2022/05/20 10:48:34;;;;;;;;;;;30.30;99.90;;;;;;5011832;28;20313;-67
2022/05/20 10:51:19;;;;;;;;;;;30.20;99.90;;;;;;5006966;28;19921;-67
2022/05/20 10:53:58;;;;;;;;;;;30.40;99.90;;;;;;5002441;28;19929;-67
2022/05/20 10:56:39;;;;;;;;;;;30.40;99.90;;;;;;5005225;28;20007;-67
2022/05/20 10:59:06;;;;;;;;;;;29.90;99.90;;;;;;5008400;28;19965;-66
2022/05/20 11:01:44;;;;;;;;;;;30.00;99.90;;;;;;5010632;28;19972;-66
2022/05/20 11:04:29;;;;;;;;;;;30.60;99.90;;;;;;5010087;28;19921;-66
2022/05/20 11:07:13;;;;;;;;;;;30.10;99.90;;;;;;5000491;28;20891;-66
2022/05/20 11:09:40;;;;;;;;;;;30.30;99.90;;;;;;5001700;28;19951;-67
2022/05/20 11:12:11;;;;;;;;;;;30.70;99.90;;;;;;5006721;28;19940;-67
2022/05/20 11:14:37;;;;;;;;;;;30.70;99.90;;;;;;5004330;28;19931;-66
2022/05/20 11:17:07;;;;;;;;;;;30.20;99.90;;;;;;5005571;28;19925;-66
2022/05/20 11:19:40;;;;;;;;;;;29.70;99.90;;;;;;4997596;28;20480;-66
2022/05/20 11:22:09;;;;;;;;;;;29.70;99.90;;;;;;5007141;28;19921;-66
2022/05/20 11:24:57;;;;;;;;;;;29.50;99.90;;;;;;5009634;28;20447;-66
2022/05/20 11:27:27;;;;;;;;;;;29.30;99.90;;;;;;4994751;28;19927;-66
2022/05/20 11:30:02;;;;;;;;;;;29.30;99.90;;;;;;5004364;28;19960;-66
2022/05/20 11:32:38;;;;;;;;;;;29.50;99.90;;;;;;5003824;28;19936;-67
2022/05/20 11:35:32;;;;;;;;;;;29.60;99.90;;;;;;5005068;28;19932;-68
2022/05/20 11:38:12;;;;;;;;;;;29.60;99.90;;;;;;4995480;28;19925;-67
2022/05/20 11:40:56;;;;;;;;;;;29.70;99.90;;;;;;5002555;28;19922;-66
2022/05/20 11:43:52;;;;;;;;;;;29.90;99.90;;;;;;4993053;28;19921;-66
2022/05/20 11:46:27;;;;;;;;;;;30.10;99.90;;;;;;4968537;28;19921;-66
2022/05/20 11:48:54;;;;;;;;;;;30.40;99.90;;;;;;4980762;28;19961;-65
2022/05/20 11:51:39;;;;;;;;;;;30.60;99.90;;;;;;4982986;28;19972;-66
2022/05/20 11:54:11;;;;;;;;;;;31.60;99.90;;;;;;4983578;28;19970;-66
2022/05/20 11:56:50;;;;;;;;;;;32.30;99.90;;;;;;4987245;28;19926;-66
2022/05/20 11:59:20;;;;;;;;;;;31.50;99.90;;;;;;4978442;28;20622;-66
2022/05/20 12:01:48;;;;;;;;;;;31.00;99.90;;;;;;4986188;28;19925;-65
2022/05/20 12:04:16;;;;;;;;;;;30.60;99.90;;;;;;4981866;28;19929;-66
2022/05/20 12:06:54;;;;;;;;;;;30.40;99.90;;;;;;4989170;28;19936;-66
2022/05/20 12:09:26;;;;;;;;;;;30.90;99.90;;;;;;4988095;28;19921;-66
2022/05/20 12:12:07;;;;;;;;;;;31.20;99.90;;;;;;4986909;28;20299;-66
2022/05/20 12:14:53;;;;;;;;;;;31.60;99.90;;;;;;4987000;28;19926;-65
2022/05/20 12:17:46;;;;;;;;;;;32.50;99.90;;;;;;4969148;28;19933;-66
2022/05/20 12:26:00;;;;;;;;;;;31.90;99.90;;;;;;5002955;28;19921;-65
2022/05/20 12:28:26;;;;;;;;;;;31.60;99.90;;;;;;5010058;28;19929;-65
2022/05/20 12:31:06;;;;;;;;;;;31.90;99.90;;;;;;5004738;28;19965;-66
2022/05/20 12:33:47;;;;;;;;;;;31.90;99.90;;;;;;5007840;28;19925;-66
2022/05/20 12:36:29;;;;;;;;;;;32.10;99.90;;;;;;5003317;28;20612;-66
2022/05/20 12:39:08;;;;;;;;;;;32.30;99.90;;;;;;5009067;28;19925;-65
2022/05/20 12:41:50;;;;;;;;;;;32.30;99.90;;;;;;5006772;28;19921;-67
2022/05/20 12:44:17;;;;;;;;;;;32.10;99.90;;;;;;5006300;28;19927;-66
2022/05/20 12:46:46;;;;;;;;;;;31.70;99.90;;;;;;5009857;28;19932;-66
2022/05/20 12:49:13;;;;;;;;;;;31.40;99.90;;;;;;5001289;28;19921;-66
2022/05/20 12:51:42;;;;;;;;;;;31.30;99.90;;;;;;5007459;28;20008;-66
2022/05/20 12:54:23;;;;;;;;;;;31.50;99.90;;;;;;5007955;28;19925;-65
2022/05/20 12:56:55;;;;;;;;;;;31.60;99.90;;;;;;4994576;28;19925;-66
2022/05/20 12:59:22;;;;;;;;;;;31.80;99.90;;;;;;5017358;28;19936;-66
2022/05/20 13:01:56;;;;;;;;;;;31.60;99.90;;;;;;5006659;28;19936;-66
2022/05/20 13:04:24;;;;;;;;;;;31.50;99.90;;;;;;5020412;28;19925;-66
2022/05/20 13:06:51;;;;;;;;;;;31.20;99.90;;;;;;5004928;28;20610;-65
2022/05/20 13:09:23;;;;;;;;;;;30.80;99.90;;;;;;5007016;28;20013;-66
2022/05/20 13:11:50;;;;;;;;;;;30.20;99.90;;;;;;5005672;28;19929;-66
2022/05/20 13:14:28;;;;;;;;;;;29.70;99.90;;;;;;4997208;28;19929;-65
2022/05/20 13:16:55;;;;;;;;;;;29.30;99.90;;;;;;5008679;28;19925;-66
2022/05/20 13:19:28;;;;;;;;;;;29.10;99.90;;;;;;5006933;28;20356;-66
2022/05/20 13:21:57;;;;;;;;;;;29.10;99.90;;;;;;5018629;28;19925;-64
2022/05/20 13:24:25;;;;;;;;;;;29.50;99.90;;;;;;5017212;28;19929;-66
2022/05/20 13:27:02;;;;;;;;;;;30.10;99.90;;;;;;5016304;28;19925;-66
2022/05/20 13:29:28;;;;;;;;;;;30.60;99.90;;;;;;5002432;28;19932;-65
2022/05/20 13:32:14;;;;;;;;;;;31.10;99.90;;;;;;5002987;28;19925;-65
2022/05/20 13:34:46;;;;;;;;;;;31.80;99.90;;;;;;5002693;28;19926;-66
2022/05/20 13:37:14;;;;;;;;;;;32.20;99.90;;;;;;5012135;28;19978;-67
2022/05/20 13:39:41;;;;;;;;;;;32.20;99.90;;;;;;5017613;28;20597;-66
2022/05/20 13:42:16;;;;;;;;;;;31.80;99.90;;;;;;5014409;28;19929;-65
2022/05/20 13:44:44;;;;;;;;;;;31.00;99.90;;;;;;5008634;28;20410;-64
2022/05/20 13:49:59;;;;;;;;;;;29.60;99.90;;;;;;5001700;28;19922;-65
2022/05/20 13:52:26;;;;;;;;;;;28.70;99.90;;;;;;5001270;28;19929;-64
2022/05/20 13:54:56;;;;;;;;;;;27.90;99.90;;;;;;5009435;28;20024;-64
2022/05/20 13:57:35;;;;;;;;;;;27.20;99.90;;;;;;5006421;28;20454;-64
2022/05/20 14:00:18;;;;;;;;;;;26.60;99.90;;;;;;5004786;28;20568;-64
2022/05/20 14:02:50;;;;;;;;;;;26.20;99.90;;;;;;5022008;28;20130;-64
2022/05/20 14:05:20;;;;;;;;;;;26.10;99.90;;;;;;4991844;28;19980;-64
2022/05/20 14:07:49;;;;;;;;;;;26.20;99.90;;;;;;4996868;28;19921;-67
2022/05/20 14:10:24;;;;;;;;;;;26.30;99.90;;;;;;5003807;28;20304;-64
2022/05/20 14:12:52;;;;;;;;;;;26.20;99.90;;;;;;5000624;28;20004;-64
2022/05/20 14:15:21;;;;;;;;;;;26.00;99.90;;;;;;5003557;28;19925;-64
2022/05/20 14:17:48;;;;;;;;;;;26.00;99.90;;;;;;5002122;28;19937;-64
2022/05/20 14:20:16;;;;;;;;;;;25.90;99.90;;;;;;5006101;28;19921;-65
2022/05/20 14:22:44;;;;;;;;;;;25.70;99.90;;;;;;4999359;28;20008;-65
2022/05/20 14:25:29;;;;;;;;;;;25.40;99.90;;;;;;5007105;28;19928;-66
2022/05/20 14:28:12;;;;;;;;;;;24.80;99.90;;;;;;5005467;28;19930;-65
2022/05/20 14:30:41;;;;;;;;;;;23.90;99.90;;;;;;5041145;28;19921;-66
2022/05/20 14:33:13;;;;;;;;;;;23.40;99.90;;;;;;5010070;28;19935;-65
2022/05/20 14:35:42;;;;;;;;;;;23.10;99.90;;;;;;5010175;28;19944;-65
2022/05/20 14:38:11;;;;;;;;;;;23.00;99.90;;;;;;5014369;28;20369;-65
2022/05/20 14:40:40;;;;;;;;;;;23.10;99.90;;;;;;4998062;28;20012;-65
2022/05/20 14:43:07;;;;;;;;;;;23.50;99.90;;;;;;5002924;28;20636;-65
2022/05/20 14:45:36;;;;;;;;;;;23.90;99.90;;;;;;5004479;28;19928;-66
2022/05/20 14:48:09;;;;;;;;;;;24.50;99.90;;;;;;5001636;28;19964;-65
2022/05/20 14:50:43;;;;;;;;;;;25.00;99.90;;;;;;5000725;28;19922;-65
2022/05/20 14:53:22;;;;;;;;;;;25.70;99.90;;;;;;5003418;28;19975;-65
2022/05/20 14:55:53;;;;;;;;;;;26.70;99.90;;;;;;5003602;28;19925;-65
2022/05/20 14:58:20;;;;;;;;;;;28.00;99.90;;;;;;5003853;28;20365;-65
2022/05/20 15:00:54;;;;;;;;;;;28.80;99.90;;;;;;5005187;28;20022;-65
2022/05/20 15:03:23;;;;;;;;;;;29.20;99.90;;;;;;5007692;28;21961;-65
2022/05/20 15:05:51;;;;;;;;;;;29.50;99.90;;;;;;5006114;28;19922;-69
2022/05/20 15:08:18;;;;;;;;;;;30.70;99.90;;;;;;5001436;28;19925;-65
2022/05/20 15:10:58;;;;;;;;;;;30.70;99.90;;;;;;4996983;28;19957;-64
2022/05/20 15:13:26;;;;;;;;;;;31.20;99.90;;;;;;5001239;28;19929;-65
2022/05/20 15:16:00;;;;;;;;;;;31.20;99.90;;;;;;5008877;28;19921;-67
2022/05/20 15:18:27;;;;;;;;;;;31.00;99.90;;;;;;5007845;28;19929;-64
2022/05/20 15:20:58;;;;;;;;;;;31.90;99.90;;;;;;5017776;28;20402;-64
2022/05/20 15:23:36;;;;;;;;;;;32.90;99.90;;;;;;5024335;28;19928;-65